sensor_id;sensor_type;location;lat;lon;timestamp;pressure;altitude;pressure_sealevel;temperature;humidity
40596;BME280;26304;48.794;9.820;2024-03-06T00:01:02;96289.00;;;16.04;64.64
40596;BME280;26304;48.794;9.820;2024-03-06T00:03:25;96285.69;;;16.07;64.81
40596;BME280;26304;48.794;9.820;2024-03-06T00:05:47;96285.25;;;16.05;64.85
40596;BME280;26304;48.794;9.820;2024-03-06T00:08:11;96285.97;;;16.02;64.93
40596;BME280;26304;48.794;9.820;2024-03-06T00:10:33;96295.72;;;16.01;65.28
40596;BME280;26304;48.794;9.820;2024-03-06T00:12:57;96299.44;;;16.00;64.15
40596;BME280;26304;48.794;9.820;2024-03-06T00:15:19;96301.06;;;16.08;64.76
40596;BME280;26304;48.794;9.820;2024-03-06T00:17:42;96313.34;;;16.04;65.06
40596;BME280;26304;48.794;9.820;2024-03-06T00:20:05;96306.56;;;16.00;66.15
40596;BME280;26304;48.794;9.820;2024-03-06T00:22:29;96315.13;;;15.96;65.28
40596;BME280;26304;48.794;9.820;2024-03-06T00:24:54;96312.09;;;15.94;66.05
40596;BME280;26304;48.794;9.820;2024-03-06T00:27:16;96316.94;;;15.92;65.79
40596;BME280;26304;48.794;9.820;2024-03-06T00:29:38;96326.31;;;15.93;65.95
40596;BME280;26304;48.794;9.820;2024-03-06T00:32:01;96327.00;;;15.90;64.96
40596;BME280;26304;48.794;9.820;2024-03-06T00:34:23;96321.78;;;15.90;66.01
40596;BME280;26304;48.794;9.820;2024-03-06T00:36:46;96316.53;;;15.90;65.91
40596;BME280;26304;48.794;9.820;2024-03-06T00:39:08;96317.31;;;15.91;66.05
40596;BME280;26304;48.794;9.820;2024-03-06T00:41:32;96315.78;;;15.90;66.18
40596;BME280;26304;48.794;9.820;2024-03-06T00:43:55;96320.28;;;15.89;66.66
40596;BME280;26304;48.794;9.820;2024-03-06T00:46:17;96317.22;;;15.87;66.30
40596;BME280;26304;48.794;9.820;2024-03-06T00:48:40;96324.00;;;15.88;66.24
40596;BME280;26304;48.794;9.820;2024-03-06T00:51:03;96324.75;;;15.89;66.27
40596;BME280;26304;48.794;9.820;2024-03-06T00:53:26;96324.75;;;15.89;66.63
40596;BME280;26304;48.794;9.820;2024-03-06T00:55:48;96329.25;;;15.88;66.36
40596;BME280;26304;48.794;9.820;2024-03-06T00:58:12;96329.25;;;15.88;66.46
40596;BME280;26304;48.794;9.820;2024-03-06T01:00:34;96323.25;;;15.88;65.98
40596;BME280;26304;48.794;9.820;2024-03-06T01:02:57;96324.75;;;15.89;66.20
40596;BME280;26304;48.794;9.820;2024-03-06T01:05:19;96332.22;;;15.87;66.81
40596;BME280;26304;48.794;9.820;2024-03-06T01:07:42;96328.84;;;15.86;66.91
40596;BME280;26304;48.794;9.820;2024-03-06T01:10:05;96324.41;;;15.90;66.13
40596;BME280;26304;48.794;9.820;2024-03-06T01:12:28;96331.16;;;15.91;65.21
40596;BME280;26304;48.794;9.820;2024-03-06T01:14:52;96331.16;;;15.91;65.96
40596;BME280;26304;48.794;9.820;2024-03-06T01:17:15;96332.25;;;15.90;66.07
40596;BME280;26304;48.794;9.820;2024-03-06T01:19:37;96329.63;;;15.90;66.59
40596;BME280;26304;48.794;9.820;2024-03-06T01:21:59;96328.88;;;15.90;65.81
40596;BME280;26304;48.794;9.820;2024-03-06T01:24:22;96327.44;;;15.92;66.06
40596;BME280;26304;48.794;9.820;2024-03-06T01:26:44;96327.78;;;15.91;66.38
40596;BME280;26304;48.794;9.820;2024-03-06T01:29:07;96328.13;;;15.89;65.98
40596;BME280;26304;48.794;9.820;2024-03-06T01:31:30;96321.03;;;15.90;65.87
40596;BME280;26304;48.794;9.820;2024-03-06T01:33:53;96313.50;;;15.88;66.21
40596;BME280;26304;48.794;9.820;2024-03-06T01:36:15;96322.47;;;15.87;66.82
40596;BME280;26304;48.794;9.820;2024-03-06T01:38:38;96316.13;;;15.88;66.14
40596;BME280;26304;48.794;9.820;2024-03-06T01:41:00;96318.75;;;15.88;66.64
40596;BME280;26304;48.794;9.820;2024-03-06T01:43:25;96313.50;;;15.88;66.39
40596;BME280;26304;48.794;9.820;2024-03-06T01:45:48;96310.50;;;15.86;65.92
40596;BME280;26304;48.794;9.820;2024-03-06T01:48:12;96312.75;;;15.88;66.15
40596;BME280;26304;48.794;9.820;2024-03-06T01:50:35;96307.16;;;15.89;65.89
40596;BME280;26304;48.794;9.820;2024-03-06T01:52:57;96306.41;;;15.89;65.16
40596;BME280;26304;48.794;9.820;2024-03-06T01:55:20;96298.13;;;15.87;66.21
40596;BME280;26304;48.794;9.820;2024-03-06T01:57:43;96304.13;;;15.87;66.34
40596;BME280;26304;48.794;9.820;2024-03-06T02:00:08;96306.75;;;15.87;66.40
40596;BME280;26304;48.794;9.820;2024-03-06T02:02:34;96308.28;;;15.88;65.01
40596;BME280;26304;48.794;9.820;2024-03-06T02:04:58;96307.09;;;15.86;66.40
40596;BME280;26304;48.794;9.820;2024-03-06T02:07:21;96319.84;;;15.87;65.36
40596;BME280;26304;48.794;9.820;2024-03-06T02:09:43;96305.97;;;15.83;66.12
40596;BME280;26304;48.794;9.820;2024-03-06T02:12:06;96316.09;;;15.85;66.02
40596;BME280;26304;48.794;9.820;2024-03-06T02:14:29;96311.59;;;15.85;66.74
40596;BME280;26304;48.794;9.820;2024-03-06T02:16:52;96308.56;;;15.83;66.73
40596;BME280;26304;48.794;9.820;2024-03-06T02:19:14;96315.66;;;15.83;66.35
40596;BME280;26304;48.794;9.820;2024-03-06T02:21:38;96310.44;;;15.83;66.46
40596;BME280;26304;48.794;9.820;2024-03-06T02:24:00;96313.41;;;15.81;66.61
40596;BME280;26304;48.794;9.820;2024-03-06T02:26:22;96313.03;;;15.83;66.46
40596;BME280;26304;48.794;9.820;2024-03-06T02:28:48;96318.72;;;15.85;66.24
40596;BME280;26304;48.794;9.820;2024-03-06T02:31:11;96313.47;;;15.85;66.66
40596;BME280;26304;48.794;9.820;2024-03-06T02:33:34;96314.91;;;15.82;67.08
40596;BME280;26304;48.794;9.820;2024-03-06T02:35:56;96311.91;;;15.80;66.69
40596;BME280;26304;48.794;9.820;2024-03-06T02:38:21;96317.16;;;15.80;66.87
40596;BME280;26304;48.794;9.820;2024-03-06T02:40:43;96309.28;;;15.80;66.19
40596;BME280;26304;48.794;9.820;2024-03-06T02:43:06;96306.66;;;15.80;66.45
40596;BME280;26304;48.794;9.820;2024-03-06T02:45:28;96305.53;;;15.81;66.28
40596;BME280;26304;48.794;9.820;2024-03-06T02:47:51;96309.28;;;15.80;66.44
40596;BME280;26304;48.794;9.820;2024-03-06T02:50:13;96304.03;;;15.80;67.07
40596;BME280;26304;48.794;9.820;2024-03-06T02:52:36;96302.50;;;15.79;66.53
40596;BME280;26304;48.794;9.820;2024-03-06T02:55:00;96306.66;;;15.80;66.82
40596;BME280;26304;48.794;9.820;2024-03-06T02:57:22;96305.13;;;15.79;66.62
40596;BME280;26304;48.794;9.820;2024-03-06T02:59:45;96302.50;;;15.79;66.46
40596;BME280;26304;48.794;9.820;2024-03-06T03:02:07;96298.41;;;15.78;66.55
40596;BME280;26304;48.794;9.820;2024-03-06T03:04:30;96299.16;;;15.78;66.40
40596;BME280;26304;48.794;9.820;2024-03-06T03:06:52;96303.66;;;15.78;66.97
40596;BME280;26304;48.794;9.820;2024-03-06T03:09:15;96292.38;;;15.77;66.52
40596;BME280;26304;48.794;9.820;2024-03-06T03:11:39;96303.66;;;15.78;66.81
40596;BME280;26304;48.794;9.820;2024-03-06T03:14:01;96306.25;;;15.78;66.99
40596;BME280;26304;48.794;9.820;2024-03-06T03:16:23;96297.94;;;15.76;66.83
40596;BME280;26304;48.794;9.820;2024-03-06T03:18:46;96301.38;;;15.76;66.07
40596;BME280;26304;48.794;9.820;2024-03-06T03:21:08;96304.38;;;15.78;66.41
40596;BME280;26304;48.794;9.820;2024-03-06T03:23:31;96303.19;;;15.76;66.49
40596;BME280;26304;48.794;9.820;2024-03-06T03:25:54;96311.84;;;15.76;66.84
40596;BME280;26304;48.794;9.820;2024-03-06T03:28:18;96299.06;;;15.75;66.00
40596;BME280;26304;48.794;9.820;2024-03-06T03:30:40;96304.31;;;15.75;66.05
40596;BME280;26304;48.794;9.820;2024-03-06T03:33:05;96314.81;;;15.75;66.73
40596;BME280;26304;48.794;9.820;2024-03-06T03:35:27;96315.56;;;15.75;65.80
40596;BME280;26304;48.794;9.820;2024-03-06T03:37:49;96314.03;;;15.74;67.12
40596;BME280;26304;48.794;9.820;2024-03-06T03:40:13;96323.41;;;15.75;66.58
40596;BME280;26304;48.794;9.820;2024-03-06T03:42:36;96327.91;;;15.75;66.51
40596;BME280;26304;48.794;9.820;2024-03-06T03:44:59;96330.53;;;15.75;66.95
40596;BME280;26304;48.794;9.820;2024-03-06T03:47:24;96328.25;;;15.73;65.29
40596;BME280;26304;48.794;9.820;2024-03-06T03:49:46;96324.84;;;15.73;65.74
40596;BME280;26304;48.794;9.820;2024-03-06T03:52:08;96325.63;;;15.73;66.66
40596;BME280;26304;48.794;9.820;2024-03-06T03:54:31;96332.72;;;15.73;66.66
40596;BME280;26304;48.794;9.820;2024-03-06T03:56:53;96328.59;;;15.72;65.30
40596;BME280;26304;48.794;9.820;2024-03-06T03:59:16;96341.72;;;15.72;65.65
40596;BME280;26304;48.794;9.820;2024-03-06T04:01:40;96340.19;;;15.71;66.76
40596;BME280;26304;48.794;9.820;2024-03-06T04:04:02;96328.97;;;15.70;67.00
40596;BME280;26304;48.794;9.820;2024-03-06T04:06:25;96325.97;;;15.72;65.67
40596;BME280;26304;48.794;9.820;2024-03-06T04:08:47;96331.56;;;15.70;65.60
40596;BME280;26304;48.794;9.820;2024-03-06T04:11:10;96334.94;;;15.71;66.55
40596;BME280;26304;48.794;9.820;2024-03-06T04:13:35;96342.81;;;15.71;66.59
40596;BME280;26304;48.794;9.820;2024-03-06T04:15:58;96335.69;;;15.71;65.87
40596;BME280;26304;48.794;9.820;2024-03-06T04:18:22;96333.84;;;15.72;66.53
40596;BME280;26304;48.794;9.820;2024-03-06T04:20:44;96337.91;;;15.69;66.26
40596;BME280;26304;48.794;9.820;2024-03-06T04:23:06;96344.25;;;15.68;66.84
40596;BME280;26304;48.794;9.820;2024-03-06T04:25:29;96332.69;;;15.69;65.75
40596;BME280;26304;48.794;9.820;2024-03-06T04:27:52;96342.41;;;15.69;66.81
40596;BME280;26304;48.794;9.820;2024-03-06T04:30:14;96343.91;;;15.70;65.61
40596;BME280;26304;48.794;9.820;2024-03-06T04:32:37;96347.66;;;15.69;66.78
40596;BME280;26304;48.794;9.820;2024-03-06T04:35:01;96352.13;;;15.68;65.78
40596;BME280;26304;48.794;9.820;2024-03-06T04:37:23;96354.38;;;15.70;65.70
40596;BME280;26304;48.794;9.820;2024-03-06T04:39:48;96353.63;;;15.69;65.11
40596;BME280;26304;48.794;9.820;2024-03-06T04:42:10;96364.88;;;15.70;65.38
40596;BME280;26304;48.794;9.820;2024-03-06T04:44:33;96365.56;;;15.67;65.01
40596;BME280;26304;48.794;9.820;2024-03-06T04:46:55;96366.34;;;15.67;65.03
40596;BME280;26304;48.794;9.820;2024-03-06T04:49:18;96362.94;;;15.67;66.05
40596;BME280;26304;48.794;9.820;2024-03-06T04:51:42;96373.78;;;15.65;65.67
40596;BME280;26304;48.794;9.820;2024-03-06T04:54:04;96369.31;;;15.66;66.19
40596;BME280;26304;48.794;9.820;2024-03-06T04:56:26;96369.63;;;15.60;66.26
40596;BME280;26304;48.794;9.820;2024-03-06T04:58:49;96371.81;;;15.58;65.64
40596;BME280;26304;48.794;9.820;2024-03-06T05:01:12;96376.00;;;15.63;65.28
40596;BME280;26304;48.794;9.820;2024-03-06T05:03:35;96378.44;;;16.25;63.57
40596;BME280;26304;48.794;9.820;2024-03-06T05:05:59;96369.78;;;16.82;62.01
40596;BME280;26304;48.794;9.820;2024-03-06T05:08:23;96389.53;;;17.36;60.29
40596;BME280;26304;48.794;9.820;2024-03-06T05:10:45;96385.34;;;17.76;58.65
40596;BME280;26304;48.794;9.820;2024-03-06T05:13:07;96394.69;;;18.19;57.37
40596;BME280;26304;48.794;9.820;2024-03-06T05:15:30;96385.09;;;18.48;56.58
40596;BME280;26304;48.794;9.820;2024-03-06T05:17:52;96395.78;;;18.80;55.50
40596;BME280;26304;48.794;9.820;2024-03-06T05:20:17;96402.63;;;18.96;54.95
40596;BME280;26304;48.794;9.820;2024-03-06T05:22:39;96412.44;;;19.02;55.18
40596;BME280;26304;48.794;9.820;2024-03-06T05:25:03;96411.72;;;19.16;54.77
40596;BME280;26304;48.794;9.820;2024-03-06T05:27:26;96417.03;;;19.38;53.91
40596;BME280;26304;48.794;9.820;2024-03-06T05:29:50;96415.56;;;19.55;53.63
40596;BME280;26304;48.794;9.820;2024-03-06T05:32:13;96410.28;;;19.58;53.24
40596;BME280;26304;48.794;9.820;2024-03-06T05:34:35;96409.94;;;19.71;53.11
40596;BME280;26304;48.794;9.820;2024-03-06T05:36:58;96414.84;;;19.76;53.00
40596;BME280;26304;48.794;9.820;2024-03-06T05:39:20;96411.84;;;19.95;52.74
40596;BME280;26304;48.794;9.820;2024-03-06T05:41:44;96412.22;;;19.90;53.16
40596;BME280;26304;48.794;9.820;2024-03-06T05:44:07;96406.94;;;20.16;52.45
40596;BME280;26304;48.794;9.820;2024-03-06T05:46:29;96414.47;;;20.21;52.61
40596;BME280;26304;48.794;9.820;2024-03-06T05:48:52;96416.34;;;20.24;52.31
40596;BME280;26304;48.794;9.820;2024-03-06T05:51:14;96417.84;;;20.28;52.36
40596;BME280;26304;48.794;9.820;2024-03-06T05:53:37;96420.47;;;20.39;51.92
40596;BME280;26304;48.794;9.820;2024-03-06T05:56:01;96424.19;;;20.56;51.77
40596;BME280;26304;48.794;9.820;2024-03-06T05:58:25;96423.09;;;20.46;52.23
40596;BME280;26304;48.794;9.820;2024-03-06T06:00:48;96423.06;;;20.64;52.07
40596;BME280;26304;48.794;9.820;2024-03-06T06:03:10;96428.34;;;20.72;51.95
40596;BME280;26304;48.794;9.820;2024-03-06T06:05:33;96435.84;;;20.84;52.02
40596;BME280;26304;48.794;9.820;2024-03-06T06:07:57;96438.09;;;20.89;51.89
40596;BME280;26304;48.794;9.820;2024-03-06T06:10:21;96435.81;;;20.91;51.83
40596;BME280;26304;48.794;9.820;2024-03-06T06:12:43;96438.00;;;21.11;51.57
40596;BME280;26304;48.794;9.820;2024-03-06T06:15:08;96447.84;;;20.99;51.61
40596;BME280;26304;48.794;9.820;2024-03-06T06:17:30;96441.00;;;21.09;51.59
40596;BME280;26304;48.794;9.820;2024-03-06T06:19:53;96450.06;;;21.12;51.68
40596;BME280;26304;48.794;9.820;2024-03-06T06:22:15;96450.91;;;20.94;52.00
40596;BME280;26304;48.794;9.820;2024-03-06T06:24:38;96452.81;;;20.90;52.57
40596;BME280;26304;48.794;9.820;2024-03-06T06:27:02;96463.00;;;20.88;52.07
40596;BME280;26304;48.794;9.820;2024-03-06T06:29:24;96452.44;;;20.88;52.06
40596;BME280;26304;48.794;9.820;2024-03-06T06:31:48;96459.97;;;20.90;51.94
40596;BME280;26304;48.794;9.820;2024-03-06T06:34:10;96463.72;;;20.99;51.59
40596;BME280;26304;48.794;9.820;2024-03-06T06:36:33;96459.59;;;20.91;51.94
40596;BME280;26304;48.794;9.820;2024-03-06T06:38:55;96462.22;;;20.98;51.69
40596;BME280;26304;48.794;9.820;2024-03-06T06:41:18;96465.59;;;21.02;51.44
40596;BME280;26304;48.794;9.820;2024-03-06T06:43:40;96458.06;;;21.04;51.35
40596;BME280;26304;48.794;9.820;2024-03-06T06:46:03;96458.78;;;21.09;51.30
40596;BME280;26304;48.794;9.820;2024-03-06T06:48:28;96459.91;;;21.11;51.40
40596;BME280;26304;48.794;9.820;2024-03-06T06:50:50;96463.66;;;21.17;51.49
40596;BME280;26304;48.794;9.820;2024-03-06T06:53:13;96461.31;;;21.27;51.32
40596;BME280;26304;48.794;9.820;2024-03-06T06:55:35;96463.63;;;21.25;51.50
40596;BME280;26304;48.794;9.820;2024-03-06T06:57:59;96469.81;;;20.82;53.21
40596;BME280;26304;48.794;9.820;2024-03-06T07:00:21;96464.59;;;20.49;54.02
40596;BME280;26304;48.794;9.820;2024-03-06T07:02:45;96474.41;;;20.35;54.27
40596;BME280;26304;48.794;9.820;2024-03-06T07:05:09;96477.03;;;20.27;54.59
40596;BME280;26304;48.794;9.820;2024-03-06T07:07:32;96481.19;;;20.21;54.97
40596;BME280;26304;48.794;9.820;2024-03-06T07:09:54;96482.34;;;20.09;55.23
40596;BME280;26304;48.794;9.820;2024-03-06T07:12:16;96480.47;;;20.03;55.49
40596;BME280;26304;48.794;9.820;2024-03-06T07:14:39;96475.16;;;19.92;56.10
40596;BME280;26304;48.794;9.820;2024-03-06T07:17:04;96475.91;;;19.85;56.37
40596;BME280;26304;48.794;9.820;2024-03-06T07:19:26;96479.69;;;19.77;56.52
40596;BME280;26304;48.794;9.820;2024-03-06T07:21:50;96478.09;;;19.69;56.68
40596;BME280;26304;48.794;9.820;2024-03-06T07:24:13;96481.91;;;19.64;56.82
40596;BME280;26304;48.794;9.820;2024-03-06T07:26:35;96477.75;;;19.59;56.99
40596;BME280;26304;48.794;9.820;2024-03-06T07:28:58;96479.59;;;19.55;56.92
40596;BME280;26304;48.794;9.820;2024-03-06T07:31:20;96482.59;;;19.50;56.80
40596;BME280;26304;48.794;9.820;2024-03-06T07:33:43;96484.47;;;19.46;57.55
40596;BME280;26304;48.794;9.820;2024-03-06T07:36:05;96483.72;;;19.42;57.21
40596;BME280;26304;48.794;9.820;2024-03-06T07:38:29;96484.06;;;19.33;57.67
40596;BME280;26304;48.794;9.820;2024-03-06T07:40:52;96488.13;;;18.50;57.24
40596;BME280;26304;48.794;9.820;2024-03-06T07:43:14;96489.34;;;18.08;56.40
40596;BME280;26304;48.794;9.820;2024-03-06T07:45:37;96487.78;;;18.03;56.05
40596;BME280;26304;48.794;9.820;2024-03-06T07:47:59;96485.50;;;17.60;56.25
40596;BME280;26304;48.794;9.820;2024-03-06T07:50:21;96489.03;;;17.41;56.14
40596;BME280;26304;48.794;9.820;2024-03-06T07:52:44;96494.13;;;17.27;56.37
40596;BME280;26304;48.794;9.820;2024-03-06T07:55:08;96495.19;;;17.19;55.95
40596;BME280;26304;48.794;9.820;2024-03-06T07:57:31;96501.84;;;17.13;55.93
40596;BME280;26304;48.794;9.820;2024-03-06T07:59:53;96501.09;;;17.12;55.83
40596;BME280;26304;48.794;9.820;2024-03-06T08:02:15;96503.38;;;17.14;55.35
40596;BME280;26304;48.794;9.820;2024-03-06T08:04:38;96506.97;;;17.02;55.74
40596;BME280;26304;48.794;9.820;2024-03-06T08:07:00;96505.31;;;17.20;54.68
40596;BME280;26304;48.794;9.820;2024-03-06T08:09:23;96503.78;;;17.16;54.34
40596;BME280;26304;48.794;9.820;2024-03-06T08:11:50;96507.34;;;17.04;54.49
40596;BME280;26304;48.794;9.820;2024-03-06T08:14:15;96503.81;;;16.89;53.92
40596;BME280;26304;48.794;9.820;2024-03-06T08:16:38;96505.91;;;16.80;54.41
40596;BME280;26304;48.794;9.820;2024-03-06T08:19:00;96508.88;;;16.78;54.37
40596;BME280;26304;48.794;9.820;2024-03-06T08:21:23;96508.94;;;16.82;54.32
40596;BME280;26304;48.794;9.820;2024-03-06T08:23:45;96509.81;;;16.63;54.17
40596;BME280;26304;48.794;9.820;2024-03-06T08:26:08;96511.56;;;16.55;54.87
40596;BME280;26304;48.794;9.820;2024-03-06T08:28:32;96508.66;;;16.64;53.89
40596;BME280;26304;48.794;9.820;2024-03-06T08:30:54;96508.19;;;16.55;54.55
40596;BME280;26304;48.794;9.820;2024-03-06T08:33:17;96511.88;;;16.50;54.03
40596;BME280;26304;48.794;9.820;2024-03-06T08:35:39;96506.31;;;16.55;55.26
40596;BME280;26304;48.794;9.820;2024-03-06T08:38:02;96506.53;;;16.46;54.49
40596;BME280;26304;48.794;9.820;2024-03-06T08:40:25;96512.63;;;16.27;55.69
40596;BME280;26304;48.794;9.820;2024-03-06T08:42:48;96521.50;;;16.42;54.85
40596;BME280;26304;48.794;9.820;2024-03-06T08:45:12;96518.81;;;16.39;53.06
40596;BME280;26304;48.794;9.820;2024-03-06T08:47:35;96515.06;;;16.40;54.62
40596;BME280;26304;48.794;9.820;2024-03-06T08:49:57;96515.53;;;16.45;54.52
40596;BME280;26304;48.794;9.820;2024-03-06T08:52:20;96518.34;;;16.56;54.00
40596;BME280;26304;48.794;9.820;2024-03-06T08:54:43;96523.63;;;16.60;54.16
40596;BME280;26304;48.794;9.820;2024-03-06T08:57:05;96525.59;;;16.66;54.00
40596;BME280;26304;48.794;9.820;2024-03-06T08:59:27;96518.47;;;16.67;53.70
40596;BME280;26304;48.794;9.820;2024-03-06T09:01:53;96524.22;;;16.76;54.02
40596;BME280;26304;48.794;9.820;2024-03-06T09:04:16;96530.00;;;16.85;53.73
40596;BME280;26304;48.794;9.820;2024-03-06T09:06:39;96524.59;;;17.01;54.35
40596;BME280;26304;48.794;9.820;2024-03-06T09:09:01;96525.66;;;17.27;53.73
40596;BME280;26304;48.794;9.820;2024-03-06T09:11:24;96535.75;;;17.55;53.70
40596;BME280;26304;48.794;9.820;2024-03-06T09:13:46;96534.75;;;17.67;52.96
40596;BME280;26304;48.794;9.820;2024-03-06T09:16:09;96536.25;;;18.02;52.10
40596;BME280;26304;48.794;9.820;2024-03-06T09:18:33;96543.16;;;18.18;52.29
40596;BME280;26304;48.794;9.820;2024-03-06T09:20:55;96537.47;;;18.60;51.69
40596;BME280;26304;48.794;9.820;2024-03-06T09:23:17;96541.34;;;19.47;49.51
40596;BME280;26304;48.794;9.820;2024-03-06T09:25:40;96544.44;;;19.74;49.07
40596;BME280;26304;48.794;9.820;2024-03-06T09:28:03;96550.94;;;19.99;48.73
40596;BME280;26304;48.794;9.820;2024-03-06T09:30:28;96549.06;;;20.13;48.41
40596;BME280;26304;48.794;9.820;2024-03-06T09:32:51;96559.63;;;20.24;48.45
40596;BME280;26304;48.794;9.820;2024-03-06T09:35:14;96560.03;;;20.30;48.32
40596;BME280;26304;48.794;9.820;2024-03-06T09:37:38;96566.03;;;20.09;48.95
40596;BME280;26304;48.794;9.820;2024-03-06T09:40:00;96554.94;;;19.56;50.32
40596;BME280;26304;48.794;9.820;2024-03-06T09:42:24;96567.72;;;19.44;50.63
40596;BME280;26304;48.794;9.820;2024-03-06T09:44:47;96566.19;;;19.39;50.76
40596;BME280;26304;48.794;9.820;2024-03-06T09:47:13;96568.41;;;19.37;50.95
40596;BME280;26304;48.794;9.820;2024-03-06T09:49:36;96571.47;;;19.42;50.79
40596;BME280;26304;48.794;9.820;2024-03-06T09:51:59;96568.47;;;19.48;50.78
40596;BME280;26304;48.794;9.820;2024-03-06T09:54:23;96576.00;;;19.49;50.41
40596;BME280;26304;48.794;9.820;2024-03-06T09:56:47;96579.06;;;19.55;50.52
40596;BME280;26304;48.794;9.820;2024-03-06T09:59:10;96578.28;;;19.54;50.44
40596;BME280;26304;48.794;9.820;2024-03-06T10:01:33;96573.06;;;19.69;50.52
40596;BME280;26304;48.794;9.820;2024-03-06T10:03:57;96577.97;;;19.70;50.56
40596;BME280;26304;48.794;9.820;2024-03-06T10:06:19;96582.88;;;19.72;50.69
40596;BME280;26304;48.794;9.820;2024-03-06T10:08:44;96583.28;;;19.74;50.67
40596;BME280;26304;48.794;9.820;2024-03-06T10:11:07;96586.69;;;19.78;50.56
40596;BME280;26304;48.794;9.820;2024-03-06T10:13:30;96592.69;;;19.75;50.61
40596;BME280;26304;48.794;9.820;2024-03-06T10:15:56;96586.72;;;19.85;50.68
40596;BME280;26304;48.794;9.820;2024-03-06T10:18:19;96592.00;;;19.85;50.62
40596;BME280;26304;48.794;9.820;2024-03-06T10:20:42;96588.25;;;19.90;50.60
40596;BME280;26304;48.794;9.820;2024-03-06T10:23:05;96588.63;;;19.92;50.65
40596;BME280;26304;48.794;9.820;2024-03-06T10:25:31;96586.34;;;19.90;50.67
40596;BME280;26304;48.794;9.820;2024-03-06T10:28:07;96592.78;;;19.96;50.63
40596;BME280;26304;48.794;9.820;2024-03-06T10:30:30;96589.78;;;19.98;50.63
40596;BME280;26304;48.794;9.820;2024-03-06T10:32:52;96595.06;;;20.09;50.19
40596;BME280;26304;48.794;9.820;2024-03-06T10:35:18;96592.44;;;20.09;50.48
40596;BME280;26304;48.794;9.820;2024-03-06T10:37:42;96595.00;;;19.87;52.21
40596;BME280;26304;48.794;9.820;2024-03-06T10:40:09;96591.25;;;19.88;52.14
40596;BME280;26304;48.794;9.820;2024-03-06T10:42:35;96589.38;;;19.92;52.68
40596;BME280;26304;48.794;9.820;2024-03-06T10:44:59;96589.00;;;19.94;52.55
40596;BME280;26304;48.794;9.820;2024-03-06T10:47:23;96594.28;;;19.94;52.58
40596;BME280;26304;48.794;9.820;2024-03-06T10:49:47;96596.53;;;19.95;52.60
40596;BME280;26304;48.794;9.820;2024-03-06T10:52:10;96588.63;;;19.95;52.44
40596;BME280;26304;48.794;9.820;2024-03-06T10:54:38;96595.78;;;19.99;52.21
40596;BME280;26304;48.794;9.820;2024-03-06T10:57:04;96595.81;;;20.06;52.43
40596;BME280;26304;48.794;9.820;2024-03-06T10:59:29;96598.81;;;20.01;52.69
40596;BME280;26304;48.794;9.820;2024-03-06T11:01:52;96601.06;;;19.99;52.74
40596;BME280;26304;48.794;9.820;2024-03-06T11:04:15;96605.97;;;20.04;52.65
40596;BME280;26304;48.794;9.820;2024-03-06T11:06:38;96605.25;;;20.14;53.44
40596;BME280;26304;48.794;9.820;2024-03-06T11:09:01;96604.50;;;20.21;52.84
40596;BME280;26304;48.794;9.820;2024-03-06T11:11:24;96595.03;;;20.02;52.98
40596;BME280;26304;48.794;9.820;2024-03-06T11:13:47;96598.44;;;19.91;52.57
40596;BME280;26304;48.794;9.820;2024-03-06T11:16:11;96601.06;;;19.91;52.76
40596;BME280;26304;48.794;9.820;2024-03-06T11:18:45;96595.78;;;19.91;52.74
40596;BME280;26304;48.794;9.820;2024-03-06T11:21:30;96597.28;;;19.92;52.69
40596;BME280;26304;48.794;9.820;2024-03-06T11:24:18;96593.91;;;19.92;52.54
40596;BME280;26304;48.794;9.820;2024-03-06T11:26:42;96595.78;;;19.99;52.89
40596;BME280;26304;48.794;9.820;2024-03-06T11:29:07;96595.78;;;19.99;52.64
40596;BME280;26304;48.794;9.820;2024-03-06T11:31:30;96598.06;;;20.00;52.78
40596;BME280;26304;48.794;9.820;2024-03-06T11:33:53;96598.44;;;20.02;52.77
40596;BME280;26304;48.794;9.820;2024-03-06T11:36:19;96599.22;;;20.03;52.94
40596;BME280;26304;48.794;9.820;2024-03-06T11:38:42;96600.69;;;20.04;52.39
40596;BME280;26304;48.794;9.820;2024-03-06T11:41:04;96599.22;;;20.10;52.48
40596;BME280;26304;48.794;9.820;2024-03-06T11:43:30;96599.22;;;20.10;52.79
40596;BME280;26304;48.794;9.820;2024-03-06T11:45:53;96595.06;;;20.12;52.35
40596;BME280;26304;48.794;9.820;2024-03-06T11:48:17;96600.34;;;20.12;52.37
40596;BME280;26304;48.794;9.820;2024-03-06T11:50:42;96599.59;;;20.12;52.56
40596;BME280;26304;48.794;9.820;2024-03-06T11:53:05;96601.88;;;20.17;52.26
40596;BME280;26304;48.794;9.820;2024-03-06T11:55:27;96604.13;;;20.22;52.44
40596;BME280;26304;48.794;9.820;2024-03-06T11:57:50;96598.50;;;20.45;52.28
40596;BME280;26304;48.794;9.820;2024-03-06T12:00:13;96594.34;;;20.62;52.15
40596;BME280;26304;48.794;9.820;2024-03-06T12:02:36;96598.50;;;20.63;52.06
40596;BME280;26304;48.794;9.820;2024-03-06T12:05:03;96598.13;;;20.54;52.52
40596;BME280;26304;48.794;9.820;2024-03-06T12:07:26;96604.53;;;20.46;52.91
40596;BME280;26304;48.794;9.820;2024-03-06T12:09:49;96597.75;;;20.38;53.36
40596;BME280;26304;48.794;9.820;2024-03-06T12:12:11;96604.53;;;20.28;53.72
40596;BME280;26304;48.794;9.820;2024-03-06T12:14:35;96604.50;;;20.17;53.62
40596;BME280;26304;48.794;9.820;2024-03-06T12:16:58;96599.97;;;20.10;53.75
40596;BME280;26304;48.794;9.820;2024-03-06T12:19:21;96598.81;;;20.01;53.77
40596;BME280;26304;48.794;9.820;2024-03-06T12:21:47;96604.06;;;19.93;54.25
40596;BME280;26304;48.794;9.820;2024-03-06T12:24:10;96600.28;;;19.87;54.24
40596;BME280;26304;48.794;9.820;2024-03-06T12:26:32;96598.75;;;19.83;54.33
40596;BME280;26304;48.794;9.820;2024-03-06T12:29:06;96607.75;;;19.74;54.33
40596;BME280;26304;48.794;9.820;2024-03-06T12:31:29;96605.47;;;19.69;54.56
40596;BME280;26304;48.794;9.820;2024-03-06T12:33:56;96605.06;;;19.64;54.63
40596;BME280;26304;48.794;9.820;2024-03-06T12:36:25;96603.91;;;19.57;54.88
40596;BME280;26304;48.794;9.820;2024-03-06T12:38:55;96594.09;;;19.54;54.73